Time;durP1;ratioP1;P1;durP2;ratioP2;P2;SDS_P1;SDS_P2;PMS_P1;PMS_P2;Temp;Humidity;BMP_temperature;BMP_pressure;BME280_temperature;BME280_humidity;BME280_pressure;Samples;Min_cycle;Max_cycle;Signal;HPM_P1;HPM_P2
2022/12/15 00:41:03;;;;;;;48.33;33.20;;;-0.40;19.50;;;;;;5138983;28;20182;-78
2022/12/15 00:43:33;;;;;;;48.43;33.03;;;-0.50;20.50;;;;;;5122539;28;20182;-80
2022/12/15 00:48:45;;;;;;;48.00;32.87;;;-0.60;27.00;;;;;;5116556;28;20178;-79
2022/12/15 00:51:11;;;;;;;50.17;34.30;;;-0.60;27.90;;;;;;5134336;28;20159;-78
2022/12/15 01:21:09;;;;;;;50.23;31.97;;;-0.70;33.60;;;;;;5138402;28;20178;-79
2022/12/15 01:23:36;;;;;;;51.03;32.53;;;-0.70;37.70;;;;;;5140155;28;20191;-78
2022/12/15 01:26:03;;;;;;;43.67;31.13;;;-0.60;39.00;;;;;;5120373;28;20657;-78
2022/12/15 01:28:30;;;;;;;41.77;30.83;;;-0.70;36.50;;;;;;5118007;28;20280;-79
2022/12/15 01:30:56;;;;;;;41.00;29.93;;;-0.70;37.60;;;;;;5097943;28;20179;-79
2022/12/15 01:33:22;;;;;;;45.10;30.33;;;-0.80;38.90;;;;;;5116119;28;20589;-80
2022/12/15 01:36:14;;;;;;;46.17;31.37;;;-0.90;41.20;;;;;;5115356;28;20216;-80
2022/12/15 01:38:40;;;;;;;42.80;31.20;;;-0.70;41.70;;;;;;5112015;28;20272;-80
2022/12/15 01:41:08;;;;;;;46.70;31.23;;;-0.70;39.60;;;;;;5114428;28;20167;-78
2022/12/15 01:43:37;;;;;;;40.13;30.03;;;-0.80;35.90;;;;;;5114943;28;20174;-80
2022/12/15 01:46:09;;;;;;;41.43;29.27;;;-1.10;38.70;;;;;;5114552;28;20170;-79
2022/12/15 01:49:00;;;;;;;46.93;31.80;;;-1.20;43.50;;;;;;5096209;28;20269;-80
2022/12/15 01:51:34;;;;;;;41.80;29.50;;;-1.30;46.70;;;;;;5073770;28;20206;-79
2022/12/15 01:54:19;;;;;;;44.43;30.43;;;-1.30;49.10;;;;;;5095113;28;20193;-79
2022/12/15 01:56:49;;;;;;;41.03;28.70;;;-1.20;50.60;;;;;;5114001;28;20228;-79
2022/12/15 01:59:21;;;;;;;41.97;29.33;;;-1.20;50.00;;;;;;5116160;28;20566;-79
2022/12/15 02:01:47;;;;;;;46.47;30.23;;;-1.40;49.70;;;;;;5129170;28;20160;-80
2022/12/15 02:04:15;;;;;;;42.83;30.30;;;-1.50;51.50;;;;;;5130936;28;20163;-80
2022/12/15 02:06:40;;;;;;;42.23;29.33;;;-1.50;54.20;;;;;;5122211;28;20163;-80
2022/12/15 02:09:06;;;;;;;45.33;29.70;;;-1.30;55.70;;;;;;5114931;28;20171;-79
2022/12/15 02:12:03;;;;;;;42.03;29.50;;;-1.20;54.30;;;;;;5114054;28;20171;-79
2022/12/15 02:14:44;;;;;;;42.43;28.90;;;-1.10;51.50;;;;;;5081881;28;20587;-78
2022/12/15 02:17:26;;;;;;;44.83;29.00;;;-1.20;48.40;;;;;;5096930;28;20175;-78
2022/12/15 02:19:57;;;;;;;41.33;27.87;;;-1.20;48.80;;;;;;5115030;28;20182;-77
2022/12/15 02:22:52;;;;;;;41.47;28.57;;;-1.30;49.30;;;;;;5114566;28;20159;-78
2022/12/15 02:25:27;;;;;;;45.33;29.20;;;-1.30;50.30;;;;;;5115114;28;20175;-78
2022/12/15 02:28:20;;;;;;;42.50;28.17;;;-1.20;51.10;;;;;;5114461;28;20172;-79
2022/12/15 02:34:04;;;;;;;40.83;27.97;;;-1.00;49.30;;;;;;5113518;28;20231;-79
2022/12/15 02:36:38;;;;;;;39.00;28.03;;;-0.90;45.50;;;;;;5114352;28;20657;-80
2022/12/15 02:39:04;;;;;;;42.17;28.77;;;-0.90;40.40;;;;;;5113693;28;20300;-80
2022/12/15 02:41:35;;;;;;;42.70;29.37;;;-1.10;40.80;;;;;;5112435;28;20163;-79
2022/12/15 02:44:04;;;;;;;42.43;28.93;;;-1.20;38.00;;;;;;5114295;28;20166;-80
2022/12/15 02:47:12;;;;;;;44.10;30.10;;;-1.40;41.10;;;;;;5096066;28;20167;-79
2022/12/15 02:50:21;;;;;;;42.40;28.67;;;-1.50;44.90;;;;;;5048533;28;20183;-79
2022/12/15 02:53:18;;;;;;;40.30;27.87;;;-1.50;47.10;;;;;;5113099;28;20166;-79
2022/12/15 02:56:02;;;;;;;40.77;29.57;;;-1.60;47.80;;;;;;5114557;28;20696;-79
2022/12/15 02:58:45;;;;;;;40.63;28.83;;;-1.60;49.90;;;;;;5135280;28;20202;-78
2022/12/15 03:01:34;;;;;;;40.43;28.43;;;-1.50;50.60;;;;;;5119512;28;20167;-78
2022/12/15 03:04:02;;;;;;;39.83;28.20;;;-1.50;48.50;;;;;;5114079;28;20163;-79
2022/12/15 03:06:34;;;;;;;43.00;28.57;;;-1.50;48.40;;;;;;5113831;28;20220;-79
2022/12/15 03:08:59;;;;;;;38.87;26.30;;;-1.70;48.10;;;;;;5098334;28;20224;-78
2022/12/15 03:11:25;;;;;;;45.00;27.73;;;-1.90;51.10;;;;;;5121270;28;20166;-79
2022/12/15 03:13:52;;;;;;;41.47;29.17;;;-2.00;54.80;;;;;;5095683;28;20250;-78
2022/12/15 03:16:19;;;;;;;43.53;29.50;;;-2.00;58.20;;;;;;5134145;28;20155;-78
2022/12/15 03:18:45;;;;;;;38.43;28.33;;;-1.90;59.30;;;;;;5114103;28;20588;-80
2022/12/15 03:21:11;;;;;;;38.67;25.70;;;-1.80;59.70;;;;;;5114646;28;20166;-79
2022/12/15 03:23:39;;;;;;;39.13;28.03;;;-1.80;59.40;;;;;;5095583;28;20178;-78
2022/12/15 03:26:05;;;;;;;40.20;24.97;;;-1.70;59.20;;;;;;5113581;28;20170;-79
2022/12/15 03:28:32;;;;;;;41.80;26.87;;;-1.70;56.50;;;;;;5113539;28;20170;-77
2022/12/15 03:30:58;;;;;;;40.13;27.20;;;-1.50;56.00;;;;;;5113387;28;20182;-78
2022/12/15 03:33:24;;;;;;;38.93;26.53;;;-1.40;50.10;;;;;;5095741;28;20245;-77
2022/12/15 03:35:50;;;;;;;37.27;28.03;;;-1.30;47.50;;;;;;5113933;28;20653;-78
2022/12/15 03:38:16;;;;;;;38.37;27.00;;;-1.70;44.20;;;;;;5113083;28;20277;-78
2022/12/15 03:40:42;;;;;;;39.47;27.30;;;-1.80;47.80;;;;;;5113652;28;20216;-79
2022/12/15 03:43:09;;;;;;;41.03;26.83;;;-1.70;52.20;;;;;;5113726;28;20171;-79
2022/12/15 03:45:34;;;;;;;38.77;25.63;;;-1.70;51.50;;;;;;5113580;28;20171;-80
2022/12/15 03:48:00;;;;;;;39.37;26.53;;;-1.70;52.60;;;;;;5115000;28;20696;-79
2022/12/15 03:50:28;;;;;;;39.00;26.37;;;-1.60;53.60;;;;;;5115436;28;20163;-79
2022/12/15 03:52:56;;;;;;;39.47;25.67;;;-1.60;53.80;;;;;;5115090;28;20217;-78
2022/12/15 03:55:23;;;;;;;38.97;26.80;;;-1.60;53.40;;;;;;5115273;28;20215;-78
2022/12/15 03:57:50;;;;;;;38.97;26.17;;;-1.70;52.50;;;;;;5095320;28;20253;-79
2022/12/15 04:00:18;;;;;;;36.33;25.00;;;-1.70;53.40;;;;;;5113363;28;20169;-79
2022/12/15 04:02:44;;;;;;;38.30;24.60;;;-1.70;54.60;;;;;;5113239;28;20162;-78
2022/12/15 04:05:18;;;;;;;41.63;25.47;;;-1.80;55.00;;;;;;5113014;28;20254;-78
2022/12/15 04:07:43;;;;;;;34.90;24.37;;;-1.70;56.40;;;;;;5112520;28;20163;-78
2022/12/15 04:10:10;;;;;;;36.07;24.63;;;-1.70;56.10;;;;;;5117044;28;20178;-78
2022/12/15 04:12:38;;;;;;;33.73;23.57;;;-1.70;55.90;;;;;;5117834;28;20167;-79
2022/12/15 04:15:05;;;;;;;36.33;25.20;;;-1.60;56.20;;;;;;5117372;28;20250;-79
2022/12/15 04:17:31;;;;;;;35.77;24.60;;;-1.50;55.50;;;;;;5130001;28;20180;-79
2022/12/15 04:20:09;;;;;;;42.83;26.47;;;-1.40;55.20;;;;;;5140027;28;20634;-79
2022/12/15 04:22:43;;;;;;;40.70;26.80;;;-1.30;51.50;;;;;;5142530;28;20163;-79
2022/12/15 05:34:15;;;;;;;35.23;22.90;;;-1.40;41.10;;;;;;5118987;28;20220;-79
2022/12/15 05:36:41;;;;;;;38.03;26.07;;;-1.40;44.00;;;;;;5115627;28;20167;-77
2022/12/15 05:39:08;;;;;;;34.93;25.07;;;-1.30;45.40;;;;;;5098044;28;20210;-78
2022/12/15 05:41:34;;;;;;;39.00;24.87;;;-1.20;44.20;;;;;;5115690;28;20537;-78
2022/12/15 05:44:00;;;;;;;41.97;26.30;;;-1.10;40.10;;;;;;5096727;28;20167;-78
2022/12/15 05:46:26;;;;;;;36.93;25.43;;;-1.00;35.80;;;;;;5114812;28;20237;-79
2022/12/15 05:48:51;;;;;;;36.27;25.43;;;-1.00;34.00;;;;;;5137818;28;20155;-78
2022/12/15 05:51:17;;;;;;;37.30;26.67;;;-0.90;33.70;;;;;;5129906;28;20542;-79
2022/12/15 05:53:44;;;;;;;37.10;26.40;;;-0.80;32.60;;;;;;5116735;28;20623;-79
2022/12/15 05:56:12;;;;;;;39.37;26.63;;;-0.90;31.30;;;;;;5115372;28;20174;-78
2022/12/15 05:58:39;;;;;;;41.00;28.77;;;-0.90;30.10;;;;;;5097108;28;20215;-79
2022/12/15 06:01:07;;;;;;;38.47;25.07;;;-1.00;29.60;;;;;;5114577;28;20195;-78
2022/12/15 06:03:33;;;;;;;34.93;24.30;;;-1.10;31.80;;;;;;5115188;28;20159;-79
2022/12/15 06:06:00;;;;;;;32.47;23.43;;;-1.10;36.50;;;;;;5099510;28;20175;-79
2022/12/15 06:08:30;;;;;;;37.23;24.53;;;-1.10;39.00;;;;;;5122161;28;20182;-79
2022/12/15 06:10:56;;;;;;;32.27;23.07;;;-1.00;39.60;;;;;;5102183;28;20259;-79
2022/12/15 06:13:25;;;;;;;36.67;25.10;;;-1.10;39.80;;;;;;5120291;28;20182;-78
2022/12/15 06:15:55;;;;;;;34.53;23.43;;;-1.10;39.80;;;;;;5115272;28;20313;-77
2022/12/15 06:18:21;;;;;;;36.37;24.30;;;-1.10;40.40;;;;;;5116468;28;20199;-80
2022/12/15 06:20:47;;;;;;;31.80;23.17;;;-0.90;41.40;;;;;;5117188;28;20232;-79
2022/12/15 06:23:12;;;;;;;38.97;25.13;;;-0.90;40.80;;;;;;5115884;28;20222;-80
2022/12/15 06:25:38;;;;;;;37.90;25.47;;;-0.70;38.10;;;;;;5114483;28;20584;-79
2022/12/15 06:28:05;;;;;;;36.73;26.20;;;-0.70;33.60;;;;;;5096077;28;20178;-79
2022/12/15 06:30:30;;;;;;;37.23;26.40;;;-0.70;31.10;;;;;;5113699;28;20573;-79
2022/12/15 06:32:56;;;;;;;34.07;24.40;;;-0.70;30.20;;;;;;5113287;28;20198;-79
2022/12/15 06:35:22;;;;;;;35.00;25.90;;;-0.70;28.60;;;;;;5114596;28;20166;-78
2022/12/15 06:37:47;;;;;;;35.63;24.90;;;-0.80;27.20;;;;;;5115012;28;20194;-79
2022/12/15 06:40:13;;;;;;;38.57;26.17;;;-0.80;26.30;;;;;;5117747;28;20178;-79
2022/12/15 06:42:39;;;;;;;35.60;24.77;;;-0.90;25.50;;;;;;5118200;28;20171;-77
2022/12/15 06:45:05;;;;;;;36.60;24.40;;;-1.00;25.00;;;;;;5115970;28;20534;-79
2022/12/15 06:47:30;;;;;;;37.17;25.07;;;-1.10;26.40;;;;;;5114676;28;20300;-79
2022/12/15 06:49:56;;;;;;;35.37;25.10;;;-1.10;28.50;;;;;;5113925;27;20231;-80
2022/12/15 06:52:22;;;;;;;36.33;25.03;;;-1.00;29.60;;;;;;5107762;28;20176;-79
2022/12/15 06:54:47;;;;;;;37.33;25.77;;;-1.00;30.10;;;;;;5075976;28;20274;-80
2022/12/15 06:57:13;;;;;;;36.83;26.27;;;-1.00;29.40;;;;;;5107156;28;20179;-79
2022/12/15 06:59:39;;;;;;;42.87;28.03;;;-0.90;28.90;;;;;;5113035;28;20215;-79
2022/12/15 07:02:13;;;;;;;43.67;26.83;;;-0.70;26.90;;;;;;5114186;28;20664;-79
2022/12/15 07:04:39;;;;;;;38.93;26.57;;;-0.80;24.80;;;;;;5110726;28;20174;-78
2022/12/15 07:07:05;;;;;;;38.97;25.97;;;-0.80;26.10;;;;;;5113976;28;20228;-79
2022/12/15 07:09:30;;;;;;;42.03;26.93;;;-0.80;27.40;;;;;;5113230;28;20265;-79
2022/12/15 07:11:57;;;;;;;42.43;26.37;;;-0.80;28.00;;;;;;5121638;28;20190;-80
2022/12/15 07:14:23;;;;;;;40.90;26.00;;;-0.70;29.20;;;;;;5120021;28;20163;-80
2022/12/15 07:16:49;;;;;;;37.83;26.10;;;-0.70;28.40;;;;;;5138305;28;20202;-80
2022/12/15 07:19:15;;;;;;;41.07;27.10;;;-0.60;28.60;;;;;;5116412;28;20267;-78
2022/12/15 07:21:40;;;;;;;37.73;25.20;;;-0.60;27.40;;;;;;5117109;28;20232;-81
2022/12/15 07:24:08;;;;;;;39.83;25.20;;;-0.60;26.20;;;;;;5122745;28;20163;-78
2022/12/15 07:26:33;;;;;;;39.97;25.70;;;-0.60;25.80;;;;;;5129824;28;20167;-80
2022/12/15 07:29:00;;;;;;;40.03;27.63;;;-0.60;25.50;;;;;;5124332;28;20627;-80
2022/12/15 07:31:26;;;;;;;37.83;25.93;;;-0.50;26.00;;;;;;5128058;28;20186;-78
2022/12/15 07:33:53;;;;;;;34.93;25.13;;;-0.40;25.30;;;;;;5122028;28;20190;-77
2022/12/15 07:36:19;;;;;;;38.37;26.23;;;-0.50;24.10;;;;;;5115751;28;20643;-80
2022/12/15 07:38:44;;;;;;;34.17;24.53;;;-0.40;23.10;;;;;;5112976;28;20281;-78
2022/12/15 07:41:10;;;;;;;38.63;25.10;;;-0.40;22.10;;;;;;5094013;28;20258;-81
2022/12/15 07:43:36;;;;;;;41.07;26.60;;;-0.30;20.80;;;;;;5112651;28;20171;-79
2022/12/15 07:46:03;;;;;;;41.57;26.30;;;-0.30;18.90;;;;;;5095386;28;20179;-80
2022/12/15 07:48:29;;;;;;;36.77;25.13;;;-0.20;18.80;;;;;;5113479;28;20259;-80
2022/12/15 07:50:58;;;;;;;37.53;25.07;;;-0.30;17.30;;;;;;5094376;28;20261;-79
2022/12/15 07:53:26;;;;;;;36.63;26.20;;;-0.20;18.00;;;;;;5113337;28;20249;-80
2022/12/15 07:55:57;;;;;;;37.13;26.57;;;-0.20;17.00;;;;;;5113193;28;20198;-81
2022/12/15 07:58:27;;;;;;;37.97;26.60;;;-0.20;17.10;;;;;;5112906;28;20670;-80
2022/12/15 08:00:57;;;;;;;40.80;28.20;;;-0.20;17.10;;;;;;5113147;28;20178;-80
2022/12/15 08:03:23;;;;;;;38.87;27.83;;;-0.20;16.00;;;;;;5114589;28;20171;-80
2022/12/15 08:05:50;;;;;;;38.93;27.90;;;-0.20;15.80;;;;;;5136892;28;20172;-80
2022/12/15 08:08:17;;;;;;;43.20;27.57;;;-0.60;17.20;;;;;;5118332;28;20163;-78
2022/12/15 08:10:44;;;;;;;41.40;27.17;;;-0.60;18.90;;;;;;5114226;28;20175;-80
2022/12/15 08:13:11;;;;;;;38.63;25.10;;;-0.80;19.10;;;;;;5113222;28;20163;-80
2022/12/15 08:15:37;;;;;;;41.13;27.87;;;-1.00;24.60;;;;;;5113299;28;20163;-80
2022/12/15 08:18:07;;;;;;;42.40;26.30;;;-1.10;27.70;;;;;;5113199;28;20194;-79
2022/12/15 08:20:34;;;;;;;38.10;26.00;;;-0.90;29.30;;;;;;5115671;28;20319;-81
2022/12/15 08:23:00;;;;;;;41.93;26.70;;;-1.10;22.00;;;;;;5136354;28;20186;-80
2022/12/15 08:25:29;;;;;;;40.90;25.33;;;-1.30;24.20;;;;;;5128621;28;20182;-79
2022/12/15 08:27:56;;;;;;;43.10;27.80;;;-1.40;23.50;;;;;;5117336;28;20245;-80
2022/12/15 08:30:23;;;;;;;38.97;26.00;;;-1.60;25.70;;;;;;5106720;28;20714;-82
2022/12/15 08:32:50;;;;;;;38.57;27.13;;;-1.70;30.40;;;;;;5092872;28;20310;-80
2022/12/15 08:35:16;;;;;;;38.10;25.00;;;-1.90;35.20;;;;;;5092944;28;20167;-80
2022/12/15 08:37:41;;;;;;;39.67;26.10;;;-1.90;38.10;;;;;;5075468;28;20283;-80
2022/12/15 08:40:08;;;;;;;36.50;25.60;;;-1.80;40.20;;;;;;5093969;28;20176;-81
2022/12/15 08:42:34;;;;;;;40.53;26.03;;;-1.80;41.50;;;;;;5092628;28;20167;-79
2022/12/15 08:45:00;;;;;;;40.87;26.50;;;-1.60;43.90;;;;;;5092573;28;20577;-80
2022/12/15 08:47:26;;;;;;;41.33;24.83;;;-1.40;38.50;;;;;;5097056;28;20175;-81
2022/12/15 08:49:53;;;;;;;46.63;26.20;;;-1.30;33.60;;;;;;5095689;28;20707;-80
2022/12/15 08:52:19;;;;;;;39.77;27.30;;;-1.20;31.00;;;;;;5079261;28;20183;-79
2022/12/15 08:54:45;;;;;;;39.13;25.90;;;-1.20;32.10;;;;;;5077617;28;20234;-77
2022/12/15 08:57:10;;;;;;;40.63;28.60;;;-1.30;33.00;;;;;;5096577;28;20651;-81
2022/12/15 08:59:36;;;;;;;38.50;26.27;;;-1.20;34.20;;;;;;5096493;28;20565;-81
2022/12/15 09:02:03;;;;;;;40.30;27.10;;;-1.00;34.30;;;;;;5096623;28;20171;-80
2022/12/15 09:04:29;;;;;;;40.17;27.30;;;-1.10;32.70;;;;;;5096610;28;20190;-80
2022/12/15 09:06:55;;;;;;;43.50;27.47;;;-1.10;31.40;;;;;;5095797;28;20171;-80
2022/12/15 09:09:20;;;;;;;38.23;26.30;;;-1.00;31.90;;;;;;5095903;28;20261;-80
2022/12/15 09:11:47;;;;;;;40.90;26.50;;;-0.80;26.70;;;;;;5096099;28;20657;-80
2022/12/15 09:14:13;;;;;;;42.70;28.50;;;-0.60;21.30;;;;;;5095245;28;20577;-80
2022/12/15 09:16:39;;;;;;;48.70;29.10;;;-0.60;12.80;;;;;;5095382;28;20167;-79
2022/12/15 09:19:06;;;;;;;47.73;29.47;;;-0.50;10.00;;;;;;5095929;28;20694;-80
2022/12/15 09:21:31;;;;;;;43.63;28.07;;;-0.50;8.80;;;;;;5077892;28;20172;-79
2022/12/15 09:24:00;;;;;;;45.47;27.70;;;-0.40;7.30;;;;;;5096316;28;20174;-79
2022/12/15 09:26:31;;;;;;;41.57;28.90;;;-0.50;11.70;;;;;;5096738;28;20171;-80
2022/12/15 09:28:57;;;;;;;45.23;32.10;;;-0.40;14.10;;;;;;5096718;28;20250;-80
2022/12/15 09:31:28;;;;;;;44.93;30.17;;;-0.30;11.70;;;;;;5095666;28;20195;-80
2022/12/15 09:33:56;;;;;;;43.43;28.77;;;-0.20;7.70;;;;;;5095675;28;20207;-81
2022/12/15 09:36:22;;;;;;;42.37;27.90;;;-0.10;2.70;;;;;;5095428;28;20175;-81
2022/12/15 09:38:48;;;;;;;39.67;29.77;;;-0.10;1.00;;;;;;5076624;28;20211;-80
2022/12/15 09:41:14;;;;;;;41.33;27.10;;;-0.20;3.80;;;;;;5095327;28;20229;-79
2022/12/15 09:43:45;;;;;;;42.73;27.97;;;-0.20;8.50;;;;;;5095115;28;20171;-80
2022/12/15 09:46:40;;;;;;;43.70;27.67;;;-0.10;10.00;;;;;;5094807;28;20226;-79
2022/12/15 09:49:28;;;;;;;39.37;27.10;;;0.00;11.10;;;;;;5095125;28;20175;-80
2022/12/15 09:52:05;;;;;;;38.10;26.10;;;0.10;10.40;;;;;;5094946;28;20222;-80
2022/12/15 09:54:33;;;;;;;45.10;28.17;;;0.20;8.00;;;;;;5094903;28;20167;-80
2022/12/15 09:57:07;;;;;;;45.17;28.00;;;0.30;4.10;;;;;;5095063;28;20172;-78
2022/12/15 09:59:39;;;;;;;39.37;29.43;;;0.40;1.00;;;;;;5095386;28;20203;-80
2022/12/15 10:02:34;;;;;;;48.80;28.97;;;0.50;1.00;;;;;;5096282;28;20526;-80
2022/12/15 10:05:31;;;;;;;45.33;29.10;;;0.40;1.00;;;;;;5065225;28;20222;-78
2022/12/15 10:07:58;;;;;;;43.43;29.10;;;0.40;1.00;;;;;;5116075;28;20155;-78
2022/12/15 10:10:31;;;;;;;50.03;30.10;;;0.50;1.00;;;;;;5116624;28;20222;-79
2022/12/15 10:13:01;;;;;;;41.80;30.20;;;0.60;1.00;;;;;;5116111;28;20176;-79
2022/12/15 10:15:36;;;;;;;46.17;30.57;;;0.90;1.00;;;;;;5100751;28;20171;-79
2022/12/15 10:18:17;;;;;;;44.53;29.70;;;1.10;1.00;;;;;;5095800;28;20187;-80
2022/12/15 10:20:44;;;;;;;42.93;29.27;;;1.10;1.00;;;;;;5094820;28;20264;-79
2022/12/15 10:23:12;;;;;;;49.60;32.33;;;1.00;1.00;;;;;;5094651;28;20242;-78
2022/12/15 10:25:42;;;;;;;45.43;31.47;;;1.20;1.00;;;;;;5076372;28;20773;-78
2022/12/15 10:28:46;;;;;;;51.20;30.27;;;1.30;1.00;;;;;;5094709;28;20577;-78
2022/12/15 10:31:15;;;;;;;39.87;28.53;;;1.20;1.00;;;;;;5095697;28;20175;-79
2022/12/15 10:33:44;;;;;;;44.97;28.90;;;1.10;1.00;;;;;;5115917;28;20156;-79
2022/12/15 10:36:13;;;;;;;41.37;29.17;;;1.20;1.00;;;;;;5101364;28;20194;-81
2022/12/15 10:38:46;;;;;;;42.80;27.63;;;1.30;1.00;;;;;;5095127;28;20208;-80
2022/12/15 10:41:18;;;;;;;40.73;27.70;;;1.10;1.00;;;;;;5094327;28;20187;-80
2022/12/15 10:43:46;;;;;;;44.87;29.60;;;1.10;1.00;;;;;;5094531;28;20164;-78
2022/12/15 10:46:22;;;;;;;41.53;29.20;;;1.20;1.00;;;;;;5094766;28;20168;-79
2022/12/15 10:48:55;;;;;;;43.57;28.83;;;1.10;1.00;;;;;;5095253;28;20172;-79
2022/12/15 10:51:35;;;;;;;40.27;28.67;;;0.90;1.00;;;;;;5081299;28;20183;-78
2022/12/15 10:54:03;;;;;;;37.70;27.53;;;1.00;1.00;;;;;;5107486;28;20170;-79
2022/12/15 10:56:30;;;;;;;39.73;27.63;;;1.20;1.00;;;;;;5090142;28;20184;-80
2022/12/15 10:58:58;;;;;;;39.77;26.10;;;1.20;1.00;;;;;;5102573;28;20207;-79
2022/12/15 11:01:26;;;;;;;38.90;27.43;;;1.40;1.00;;;;;;5097003;28;20167;-78
2022/12/15 11:04:28;;;;;;;40.67;26.77;;;1.50;1.00;;;;;;5094181;28;20172;-81
2022/12/15 11:07:03;;;;;;;38.03;26.03;;;1.60;1.00;;;;;;5075252;28;20166;-79
2022/12/15 11:09:36;;;;;;;41.07;28.80;;;1.60;1.00;;;;;;5098608;28;20239;-81
2022/12/15 11:15:24;;;;;;;37.50;25.67;;;1.80;1.00;;;;;;5114382;28;20251;-79
2022/12/15 11:17:58;;;;;;;39.30;26.57;;;1.90;1.00;;;;;;5076982;28;20646;-80
2022/12/15 11:20:37;;;;;;;34.90;26.83;;;2.00;1.00;;;;;;5099200;28;20235;-80
2022/12/15 11:23:17;;;;;;;35.27;24.63;;;2.10;1.00;;;;;;5118166;28;20171;-80
2022/12/15 11:25:57;;;;;;;34.93;25.27;;;2.20;1.00;;;;;;5114083;28;20174;-79
2022/12/15 11:28:45;;;;;;;35.13;25.10;;;2.30;1.00;;;;;;5095770;28;20179;-80
2022/12/15 11:31:49;;;;;;;34.73;25.03;;;2.60;1.00;;;;;;5113756;28;20244;-82
2022/12/15 11:34:25;;;;;;;40.27;25.50;;;2.90;1.00;;;;;;5003128;28;20181;-80
2022/12/15 11:37:18;;;;;;;35.17;24.97;;;3.00;1.00;;;;;;5028504;28;20192;-80
2022/12/15 11:39:49;;;;;;;38.83;26.13;;;3.20;1.00;;;;;;5071226;28;20219;-82
2022/12/15 11:42:43;;;;;;;37.03;25.30;;;3.20;1.00;;;;;;5110294;28;20196;-81
2022/12/15 11:45:15;;;;;;;37.17;26.50;;;3.20;1.00;;;;;;5086580;28;20191;-81
2022/12/15 11:48:13;;;;;;;37.83;27.00;;;3.30;1.00;;;;;;5093682;28;20166;-80
2022/12/15 11:50:50;;;;;;;37.47;25.80;;;3.20;1.00;;;;;;5088310;28;20176;-79
2022/12/15 11:53:40;;;;;;;33.53;25.27;;;3.20;1.00;;;;;;5076056;28;20175;-82
2022/12/15 11:56:25;;;;;;;34.73;24.83;;;3.20;1.00;;;;;;5102389;28;20197;-79
2022/12/15 11:59:12;;;;;;;37.73;26.23;;;3.40;1.00;;;;;;5122205;28;20582;-80
2022/12/15 12:01:45;;;;;;;37.63;27.17;;;3.50;1.00;;;;;;5111738;28;20177;-80
2022/12/15 12:04:27;;;;;;;48.40;26.80;;;3.60;1.00;;;;;;5113770;28;20177;-82
2022/12/15 12:06:58;;;;;;;36.90;26.27;;;3.70;1.00;;;;;;5093797;28;20187;-80
2022/12/15 12:09:27;;;;;;;36.80;26.97;;;3.70;1.00;;;;;;5112715;28;20294;-80
2022/12/15 12:12:11;;;;;;;37.73;26.93;;;3.80;1.00;;;;;;5095272;28;20163;-79
2022/12/15 12:14:40;;;;;;;37.53;26.00;;;3.90;1.00;;;;;;5120330;28;20174;-79
2022/12/15 12:17:14;;;;;;;39.97;26.80;;;4.10;1.00;;;;;;5113202;28;20172;-79
2022/12/15 12:19:53;;;;;;;34.87;26.87;;;4.20;1.00;;;;;;5113347;28;20201;-79
2022/12/15 12:22:31;;;;;;;36.10;27.50;;;4.30;1.00;;;;;;5113127;28;20163;-80
2022/12/15 12:25:16;;;;;;;38.87;28.87;;;4.40;1.00;;;;;;5113258;28;20182;-80
2022/12/15 12:27:51;;;;;;;37.60;27.13;;;4.60;1.00;;;;;;5113588;28;20179;-81
2022/12/15 12:30:21;;;;;;;39.60;27.57;;;4.70;1.00;;;;;;5115382;28;20239;-78
2022/12/15 12:33:13;;;;;;;41.20;31.13;;;4.80;1.00;;;;;;5116662;28;20171;-80
2022/12/15 12:36:08;;;;;;;36.87;29.73;;;4.80;1.00;;;;;;5098843;28;20171;-79
2022/12/15 12:38:45;;;;;;;40.20;27.47;;;4.90;1.00;;;;;;5098537;28;20205;-80
2022/12/15 12:41:31;;;;;;;38.07;27.13;;;5.00;1.00;;;;;;5098190;28;20531;-80
2022/12/15 12:44:08;;;;;;;41.40;27.20;;;5.20;1.00;;;;;;5116772;28;20171;-80
2022/12/15 12:46:41;;;;;;;34.03;25.83;;;5.20;1.00;;;;;;5116502;28;20173;-80
2022/12/15 12:49:14;;;;;;;35.93;24.20;;;5.10;1.00;;;;;;5122449;28;20185;-79
2022/12/15 12:51:41;;;;;;;35.20;25.53;;;5.20;1.00;;;;;;5118032;28;20167;-81
2022/12/15 12:54:30;;;;;;;39.23;26.17;;;5.30;1.00;;;;;;5117541;28;20164;-79
2022/12/15 12:56:55;;;;;;;35.47;25.67;;;5.40;1.00;;;;;;5106721;28;20183;-79
2022/12/15 12:59:36;;;;;;;35.73;26.13;;;5.60;1.00;;;;;;5116749;28;20203;-80
2022/12/15 13:02:14;;;;;;;39.43;26.60;;;5.70;1.00;;;;;;5115958;28;20185;-81
2022/12/15 13:04:43;;;;;;;38.63;25.47;;;5.70;1.00;;;;;;5115815;27;20247;-79
2022/12/15 13:07:29;;;;;;;25.70;21.10;;;5.90;1.00;;;;;;5104677;27;20198;-80
2022/12/15 13:10:06;;;;;;;31.57;22.07;;;6.00;99.90;;;;;;5116197;28;20183;-81
2022/12/15 13:12:44;;;;;;;25.13;19.23;;;6.00;99.90;;;;;;5114754;27;20175;-78
2022/12/15 13:15:28;;;;;;;26.27;19.07;;;5.80;55.50;;;;;;5122964;28;20222;-79
2022/12/15 13:18:03;;;;;;;28.67;19.83;;;5.70;99.90;;;;;;5131704;27;20179;-80
2022/12/15 13:20:32;;;;;;;29.87;20.13;;;5.80;99.90;;;;;;5127672;28;20389;-80
2022/12/15 13:23:35;;;;;;;24.90;18.30;;;6.00;99.90;;;;;;5122842;28;20179;-81
2022/12/15 13:26:10;;;;;;;25.83;18.73;;;6.00;17.40;;;;;;5137794;27;20173;-80
2022/12/15 13:28:38;;;;;;;26.47;18.37;;;6.00;1.00;;;;;;5118398;27;20172;-80
2022/12/15 13:31:17;;;;;;;24.17;18.07;;;5.70;1.00;;;;;;5107823;28;20177;-81
2022/12/15 13:33:50;;;;;;;27.23;18.20;;;5.60;1.00;;;;;;5115618;28;20208;-81
2022/12/15 13:36:40;;;;;;;28.57;19.03;;;5.80;1.00;;;;;;5115870;28;20241;-81
2022/12/15 13:39:15;;;;;;;21.13;13.77;;;5.90;1.00;;;;;;5129068;28;20260;-78
2022/12/15 13:41:47;;;;;;;18.90;11.93;;;5.30;1.00;;;;;;5120030;28;20174;-79
2022/12/15 13:44:19;;;;;;;17.17;12.30;;;4.90;99.90;;;;;;5122391;28;20183;-80
2022/12/15 13:46:46;;;;;;;22.20;14.43;;;4.70;99.90;;;;;;5114073;27;20254;-80
2022/12/15 13:49:55;;;;;;;19.50;14.30;;;4.60;99.90;;;;;;5106913;28;20178;-80
2022/12/15 13:52:26;;;;;;;22.70;14.87;;;4.70;99.90;;;;;;5099484;28;20175;-81
2022/12/15 13:55:14;;;;;;;26.90;15.63;;;4.90;99.90;;;;;;5093626;27;20537;-81
2022/12/15 13:58:08;;;;;;;19.13;14.50;;;4.50;99.90;;;;;;5127635;27;20170;-81
2022/12/15 14:00:37;;;;;;;20.57;12.83;;;4.70;99.90;;;;;;5108761;27;20240;-80
2022/12/15 14:03:21;;;;;;;22.40;14.43;;;5.00;99.90;;;;;;5113411;28;20181;-81
2022/12/15 14:05:52;;;;;;;21.90;14.13;;;5.00;99.90;;;;;;5077338;28;20168;-81
2022/12/15 14:08:20;;;;;;;23.60;12.90;;;4.90;99.90;;;;;;5102746;28;20623;-80
2022/12/15 14:10:57;;;;;;;21.60;14.57;;;5.00;99.90;;;;;;5114858;28;20221;-81
2022/12/15 14:13:35;;;;;;;18.57;13.53;;;4.80;99.90;;;;;;5119881;27;20169;-80
2022/12/15 14:16:17;;;;;;;21.63;15.70;;;4.90;99.90;;;;;;5100395;28;20171;-80
2022/12/15 14:18:43;;;;;;;14.50;8.73;;;5.30;99.90;;;;;;5098148;28;20195;-80
2022/12/15 14:21:25;;;;;;;12.93;8.87;;;5.00;99.90;;;;;;5109863;28;20187;-79
2022/12/15 14:23:51;;;;;;;18.80;11.70;;;4.90;99.90;;;;;;5117021;28;20251;-80
2022/12/15 14:26:17;;;;;;;15.47;10.27;;;4.70;99.90;;;;;;5106784;28;20167;-79
2022/12/15 14:28:46;;;;;;;19.13;11.10;;;4.70;99.90;;;;;;5113716;28;20207;-80
2022/12/15 14:31:22;;;;;;;17.33;11.67;;;4.60;99.90;;;;;;5109550;28;20183;-81
2022/12/15 14:34:02;;;;;;;14.90;11.23;;;4.50;1.00;;;;;;5108652;28;20159;-81
2022/12/15 14:36:31;;;;;;;17.53;12.97;;;4.50;1.00;;;;;;5115045;28;20215;-80
2022/12/15 14:39:25;;;;;;;22.47;13.13;;;4.40;1.00;;;;;;5114360;28;20214;-81
2022/12/15 14:41:52;;;;;;;23.70;15.17;;;4.20;1.00;;;;;;5082097;28;20263;-82
2022/12/15 14:44:37;;;;;;;22.57;14.83;;;4.20;1.00;;;;;;5126042;28;20183;-81
2022/12/15 14:47:06;;;;;;;19.20;13.37;;;4.20;1.00;;;;;;5114171;28;20266;-80
2022/12/15 14:49:40;;;;;;;24.27;14.53;;;4.20;1.00;;;;;;5110325;28;20183;-81
2022/12/15 14:52:15;;;;;;;24.83;15.97;;;4.30;1.00;;;;;;5098395;28;20183;-82
2022/12/15 14:55:16;;;;;;;20.93;15.27;;;4.20;1.00;;;;;;5110307;28;20213;-79
2022/12/15 14:57:46;;;;;;;23.40;16.13;;;4.20;1.00;;;;;;5082962;28;20269;-80
2022/12/15 15:00:34;;;;;;;23.53;16.27;;;4.20;1.00;;;;;;5114208;28;20213;-80
2022/12/15 15:03:20;;;;;;;23.07;16.70;;;4.20;1.00;;;;;;5095885;28;20232;-80
2022/12/15 15:06:16;;;;;;;22.30;16.77;;;4.20;1.00;;;;;;5114294;28;20163;-80
2022/12/15 15:08:52;;;;;;;28.50;18.20;;;4.10;1.00;;;;;;5113482;27;20643;-80
2022/12/15 15:11:34;;;;;;;24.80;17.20;;;4.20;1.00;;;;;;5127258;27;20223;-78
2022/12/15 15:14:52;;;;;;;26.53;17.57;;;4.10;1.00;;;;;;5113588;28;20185;-80
2022/12/15 15:17:23;;;;;;;30.30;20.57;;;4.20;1.00;;;;;;5093573;27;20693;-79
2022/12/15 15:19:58;;;;;;;27.43;19.80;;;4.20;1.00;;;;;;5082863;28;20199;-78
2022/12/15 15:22:35;;;;;;;24.90;17.63;;;4.20;1.00;;;;;;5113721;28;20205;-80
2022/12/15 15:25:18;;;;;;;28.10;18.47;;;4.10;1.00;;;;;;5129760;27;20150;-81
2022/12/15 15:27:43;;;;;;;29.37;19.70;;;3.90;1.00;;;;;;5130902;27;20179;-80
2022/12/15 15:30:21;;;;;;;26.37;18.70;;;3.90;1.00;;;;;;5122660;28;20272;-79